Harnell Park, Minnesota
Current Conditions -  °F | °C
As of 8:29 PM on Wednesday 17 Dec 2014 (Local Time) from KDLH Reporting Station
Broken Clouds Broken Clouds  
Wind Chill:   Ceiling: 1500
Heat Index: 16°   Visibility: 10mi
Dew Point: 11°   Wind: 6mph
Humidity: 81%   Direction: 30°NNE
Pressure: 30.25"   Gusts: NA
Location:  46.8859°N, 92.4258°W
Report Text: KDLH 180229Z 03005KT 10SM BKN015 M09/M12 A3025 RMK AO2 T10891117
Loading
Personal Weather Stations






























Interactive Weather Map New forecast layout! Learn more

10-Day Weather Forecast

Advertisements
Track Severe Weather on mobile